Time;durP1;ratioP1;P1;durP2;ratioP2;P2;SDS_P1;SDS_P2;PMS_P1;PMS_P2;Temp;Humidity;BMP_temperature;BMP_pressure;BME280_temperature;BME280_humidity;BME280_pressure;Samples;Min_cycle;Max_cycle;Signal;HPM_P1;HPM_P2
2021/01/26 00:00:56;;;;;;;34.92;20.40;;;;;;;;;;5073042;28;20119;-76
2021/01/26 00:03:22;;;;;;;33.05;19.85;;;;;;;;;;5072753;28;20075;-76
2021/01/26 00:05:47;;;;;;;35.33;20.25;;;;;;;;;;5072911;28;20067;-76
2021/01/26 00:08:14;;;;;;;36.03;22.25;;;;;;;;;;5072981;28;20474;-76
2021/01/26 00:10:39;;;;;;;33.42;20.38;;;;;;;;;;5072074;28;20032;-76
2021/01/26 00:13:07;;;;;;;39.00;22.33;;;;;;;;;;5072825;28;20410;-76
2021/01/26 00:15:33;;;;;;;33.78;20.05;;;;;;;;;;5072955;28;20039;-76
2021/01/26 00:17:58;;;;;;;32.33;20.15;;;;;;;;;;5072817;28;20113;-76
2021/01/26 00:20:25;;;;;;;35.90;21.17;;;;;;;;;;5072859;28;20067;-76
2021/01/26 00:22:51;;;;;;;32.00;20.10;;;;;;;;;;5072627;28;20043;-76
2021/01/26 00:25:25;;;;;;;32.13;19.38;;;;;;;;;;5072140;28;20036;-76
2021/01/26 00:27:51;;;;;;;30.13;18.58;;;;;;;;;;5071760;28;20041;-76
2021/01/26 00:30:23;;;;;;;37.83;22.45;;;;;;;;;;5053855;28;20144;-76
2021/01/26 00:32:49;;;;;;;35.92;21.92;;;;;;;;;;5072497;28;20071;-76
2021/01/26 00:35:16;;;;;;;38.78;22.30;;;;;;;;;;5072848;28;20056;-76
2021/01/26 00:37:42;;;;;;;40.58;22.23;;;;;;;;;;5072849;28;20458;-76
2021/01/26 00:40:08;;;;;;;38.42;23.48;;;;;;;;;;5054599;28;20036;-76
2021/01/26 00:42:34;;;;;;;36.00;21.35;;;;;;;;;;5072562;28;20040;-76
2021/01/26 00:44:59;;;;;;;37.63;22.52;;;;;;;;;;5074302;28;20564;-76
2021/01/26 00:47:25;;;;;;;37.67;22.70;;;;;;;;;;5076326;28;20064;-76
2021/01/26 00:49:50;;;;;;;38.45;22.65;;;;;;;;;;5075967;28;20028;-76
2021/01/26 00:52:16;;;;;;;40.03;22.42;;;;;;;;;;5076359;28;20024;-76
2021/01/26 00:54:41;;;;;;;32.65;20.27;;;;;;;;;;5058340;28;20052;-76
2021/01/26 00:57:07;;;;;;;37.13;22.40;;;;;;;;;;5058160;28;20033;-76
2021/01/26 00:59:32;;;;;;;40.75;25.15;;;;;;;;;;5076351;28;20150;-76
2021/01/26 01:01:59;;;;;;;41.60;25.33;;;;;;;;;;5057310;28;20032;-76
2021/01/26 01:04:24;;;;;;;38.60;23.85;;;;;;;;;;5074881;28;20491;-76
2021/01/26 01:06:50;;;;;;;40.53;23.45;;;;;;;;;;5075917;28;20040;-76
2021/01/26 01:09:15;;;;;;;34.35;21.73;;;;;;;;;;5076152;28;20428;-76
2021/01/26 01:11:41;;;;;;;36.17;22.33;;;;;;;;;;5075801;28;20067;-76
2021/01/26 01:14:07;;;;;;;36.20;21.75;;;;;;;;;;5075879;28;20067;-76
2021/01/26 01:16:32;;;;;;;34.03;21.30;;;;;;;;;;5075286;28;20079;-76
2021/01/26 01:18:57;;;;;;;36.60;22.08;;;;;;;;;;5056498;28;20400;-76
2021/01/26 01:21:23;;;;;;;38.15;23.98;;;;;;;;;;5075755;28;20044;-76
2021/01/26 01:23:48;;;;;;;40.83;24.05;;;;;;;;;;5075801;28;20028;-76
2021/01/26 01:26:14;;;;;;;38.90;22.17;;;;;;;;;;5074977;28;20109;-76
2021/01/26 01:28:39;;;;;;;33.97;21.50;;;;;;;;;;5074725;28;20095;-76
2021/01/26 01:31:04;;;;;;;36.97;22.58;;;;;;;;;;5075427;28;20102;-76
2021/01/26 01:33:30;;;;;;;36.65;22.42;;;;;;;;;;5075146;28;20064;-76
2021/01/26 01:35:55;;;;;;;40.65;23.65;;;;;;;;;;5074786;28;20036;-76
2021/01/26 01:38:21;;;;;;;36.88;21.92;;;;;;;;;;5074070;28;20147;-76
2021/01/26 01:40:47;;;;;;;36.42;22.52;;;;;;;;;;5075241;28;20035;-76
2021/01/26 01:43:12;;;;;;;39.45;23.80;;;;;;;;;;5075357;28;20113;-76
2021/01/26 01:45:37;;;;;;;36.58;22.95;;;;;;;;;;5075270;28;20083;-76
2021/01/26 01:48:21;;;;;;;45.05;25.40;;;;;;;;;;5075174;28;20036;-75
2021/01/26 01:51:05;;;;;;;39.13;22.80;;;;;;;;;;5075052;28;20059;-76
2021/01/26 01:53:38;;;;;;;35.38;23.83;;;;;;;;;;5072595;28;20032;-75
2021/01/26 01:56:08;;;;;;;36.42;23.63;;;;;;;;;;5074856;28;20423;-76
2021/01/26 01:58:38;;;;;;;33.17;21.38;;;;;;;;;;5075120;28;20640;-76
2021/01/26 02:01:08;;;;;;;36.25;22.05;;;;;;;;;;5074884;28;20111;-76
2021/01/26 02:03:38;;;;;;;39.35;24.60;;;;;;;;;;5074747;28;20067;-76
2021/01/26 02:06:03;;;;;;;41.05;26.33;;;;;;;;;;5074526;28;20112;-76
2021/01/26 02:08:33;;;;;;;44.35;27.48;;;;;;;;;;5074693;28;20435;-76
2021/01/26 02:10:59;;;;;;;45.28;26.33;;;;;;;;;;5074894;28;20089;-76
2021/01/26 02:13:24;;;;;;;49.10;28.20;;;;;;;;;;5074641;28;20032;-76
2021/01/26 02:15:56;;;;;;;46.20;28.40;;;;;;;;;;5074762;28;20127;-76
2021/01/26 02:18:42;;;;;;;47.35;28.02;;;;;;;;;;5074733;28;20154;-76
2021/01/26 02:21:26;;;;;;;;;;;;;;;;;;5075018;28;20375;-76
2021/01/26 02:24:28;;;;;;;35.08;22.50;;;;;;;;;;5073414;28;19920;-76
2021/01/26 02:27:15;;;;;;;38.72;23.55;;;;;;;;;;5074322;28;20050;-76
2021/01/26 02:30:02;;;;;;;42.83;25.23;;;;;;;;;;5074417;28;20028;-76
2021/01/26 02:32:57;;;;;;;39.05;24.27;;;;;;;;;;5074095;28;20537;-76
2021/01/26 02:35:50;;;;;;;44.80;26.88;;;;;;;;;;5073333;28;20592;-76
2021/01/26 02:38:45;;;;;;;34.33;23.45;;;;;;;;;;5055964;28;20036;-76
2021/01/26 02:41:33;;;;;;;39.33;24.67;;;;;;;;;;5074304;28;20402;-76
2021/01/26 02:44:13;;;;;;;38.65;24.48;;;;;;;;;;5073602;28;20436;-76
2021/01/26 02:46:45;;;;;;;42.53;27.88;;;;;;;;;;5073694;28;20040;-76
2021/01/26 02:49:20;;;;;;;36.30;24.33;;;;;;;;;;5073528;28;20358;-76
2021/01/26 02:52:26;;;;;;;41.13;25.08;;;;;;;;;;5073523;28;20029;-76
2021/01/26 02:55:13;;;;;;;39.45;25.17;;;;;;;;;;5056193;28;20055;-76
2021/01/26 02:58:07;;;;;;;47.95;28.20;;;;;;;;;;5073641;28;20074;-76
2021/01/26 03:00:36;;;;;;;46.08;28.83;;;;;;;;;;5062039;28;20080;-76
2021/01/26 03:03:17;;;;;;;40.50;26.77;;;;;;;;;;5072836;28;20451;-76
2021/01/26 03:06:21;;;;;;;42.95;28.15;;;;;;;;;;5072631;28;20040;-76
2021/01/26 03:09:12;;;;;;;44.10;28.02;;;;;;;;;;5004984;28;20460;-76
2021/01/26 03:11:42;;;;;;;45.38;28.15;;;;;;;;;;5060453;28;20139;-76
2021/01/26 03:14:17;;;;;;;44.08;27.85;;;;;;;;;;5073784;28;20040;-76
2021/01/26 03:16:44;;;;;;;47.42;29.27;;;;;;;;;;5075583;28;20389;-78
2021/01/26 03:19:16;;;;;;;47.20;29.13;;;;;;;;;;5077784;28;20056;-78
2021/01/26 03:21:44;;;;;;;44.55;27.98;;;;;;;;;;5077825;28;20051;-78
2021/01/26 03:24:15;;;;;;;44.88;27.92;;;;;;;;;;5075131;28;20036;-77
2021/01/26 03:26:40;;;;;;;42.13;27.30;;;;;;;;;;5073091;28;20048;-77
2021/01/26 03:29:08;;;;;;;37.50;24.92;;;;;;;;;;5073533;28;20115;-77
2021/01/26 03:31:42;;;;;;;42.58;26.45;;;;;;;;;;5073273;28;20024;-77
2021/01/26 03:34:07;;;;;;;43.45;27.52;;;;;;;;;;5077298;28;20034;-77
2021/01/26 03:36:33;;;;;;;46.25;29.13;;;;;;;;;;5075134;28;20112;-77
2021/01/26 03:39:00;;;;;;;48.20;29.83;;;;;;;;;;5077621;28;20044;-77
2021/01/26 03:41:25;;;;;;;45.50;30.17;;;;;;;;;;5080489;28;20489;-79
2021/01/26 03:43:52;;;;;;;46.63;28.70;;;;;;;;;;5083983;28;20056;-79
2021/01/26 03:46:49;;;;;;;43.35;26.80;;;;;;;;;;5060216;28;20032;-77
2021/01/26 03:49:36;;;;;;;47.30;28.00;;;;;;;;;;5078206;28;20565;-79
2021/01/26 03:52:37;;;;;;;43.95;27.35;;;;;;;;;;5078016;28;20386;-78
2021/01/26 03:55:05;;;;;;;47.08;26.63;;;;;;;;;;5071027;28;20049;-77
2021/01/26 03:57:48;;;;;;;44.90;27.42;;;;;;;;;;5075801;28;20466;-78
2021/01/26 04:00:33;;;;;;;46.92;27.67;;;;;;;;;;5077028;28;20367;-77
2021/01/26 04:03:25;;;;;;;41.45;25.58;;;;;;;;;;5077166;28;20043;-77
2021/01/26 04:05:56;;;;;;;51.40;28.92;;;;;;;;;;5078961;28;20050;-78
2021/01/26 04:08:39;;;;;;;43.92;26.42;;;;;;;;;;5077070;28;20033;-78
2021/01/26 04:11:10;;;;;;;37.60;24.35;;;;;;;;;;5077293;28;20098;-77
2021/01/26 04:14:02;;;;;;;41.60;24.40;;;;;;;;;;5076828;28;20036;-77
2021/01/26 04:16:35;;;;;;;44.10;26.20;;;;;;;;;;5075517;28;20075;-77
2021/01/26 04:19:03;;;;;;;38.78;23.52;;;;;;;;;;5060485;28;20036;-78
2021/01/26 04:21:32;;;;;;;34.80;22.27;;;;;;;;;;5077051;28;20032;-78
2021/01/26 04:23:58;;;;;;;35.00;21.33;;;;;;;;;;5076954;28;20032;-78
2021/01/26 04:26:26;;;;;;;33.90;19.95;;;;;;;;;;5077258;28;20059;-78
2021/01/26 04:28:51;;;;;;;38.53;24.30;;;;;;;;;;5076729;28;20033;-78
2021/01/26 04:31:19;;;;;;;31.63;20.65;;;;;;;;;;5076856;28;20563;-77
2021/01/26 04:33:45;;;;;;;38.30;22.80;;;;;;;;;;5077000;28;20074;-77
2021/01/26 04:36:13;;;;;;;37.40;23.52;;;;;;;;;;5079989;28;20039;-77
2021/01/26 04:38:38;;;;;;;37.28;23.83;;;;;;;;;;5076447;28;20020;-78
2021/01/26 04:41:32;;;;;;;36.35;21.80;;;;;;;;;;5058804;28;20039;-77
2021/01/26 04:43:58;;;;;;;31.90;20.00;;;;;;;;;;5056142;28;20107;-77
2021/01/26 04:46:31;;;;;;;32.92;20.58;;;;;;;;;;5064730;28;20036;-77
2021/01/26 04:49:01;;;;;;;26.98;17.45;;;;;;;;;;5096875;28;20040;-76
2021/01/26 04:51:37;;;;;;;25.33;16.88;;;;;;;;;;5096489;28;20047;-76
2021/01/26 04:54:22;;;;;;;23.70;14.68;;;;;;;;;;5078817;28;20063;-76
2021/01/26 04:57:08;;;;;;;23.67;14.73;;;;;;;;;;5096732;28;20611;-75
2021/01/26 04:59:45;;;;;;;20.38;13.07;;;;;;;;;;5096589;28;20036;-75
2021/01/26 05:02:34;;;;;;;18.48;12.90;;;;;;;;;;5096184;28;20126;-74
2021/01/26 05:05:13;;;;;;;23.63;14.40;;;;;;;;;;5096120;28;20542;-74
2021/01/26 05:07:47;;;;;;;21.90;13.73;;;;;;;;;;5096564;28;20036;-74
2021/01/26 05:10:21;;;;;;;21.40;13.95;;;;;;;;;;5096474;28;20042;-74
2021/01/26 05:12:54;;;;;;;20.92;14.85;;;;;;;;;;5085173;28;20048;-73
2021/01/26 05:15:23;;;;;;;22.77;15.18;;;;;;;;;;5058093;28;20035;-73
2021/01/26 05:17:59;;;;;;;22.23;14.93;;;;;;;;;;5075793;28;20051;-73
2021/01/26 05:20:30;;;;;;;;;;;;;;;;;;5076027;28;20048;-73
2021/01/26 05:23:15;;;;;;;19.42;12.68;;;;;;;;;;5075909;28;20281;-73
2021/01/26 05:25:40;;;;;;;18.73;12.07;;;;;;;;;;5075876;28;20097;-73
2021/01/26 05:28:06;;;;;;;18.42;11.73;;;;;;;;;;5073895;28;20040;-73
2021/01/26 05:30:34;;;;;;;17.27;11.93;;;;;;;;;;5075280;28;20072;-73
2021/01/26 05:33:05;;;;;;;16.83;11.25;;;;;;;;;;5075438;28;20094;-73
2021/01/26 05:35:30;;;;;;;16.23;11.00;;;;;;;;;;5075538;28;20071;-73
2021/01/26 05:37:56;;;;;;;17.42;12.80;;;;;;;;;;5075456;28;20041;-73
2021/01/26 05:40:26;;;;;;;16.25;11.55;;;;;;;;;;5075519;28;20032;-73
2021/01/26 05:42:58;;;;;;;16.63;11.88;;;;;;;;;;5074158;28;20498;-73
2021/01/26 05:45:28;;;;;;;14.07;10.38;;;;;;;;;;5075324;28;20036;-73
2021/01/26 05:48:07;;;;;;;14.00;10.48;;;;;;;;;;5075228;28;20036;-73
2021/01/26 05:50:35;;;;;;;15.20;9.32;;;;;;;;;;5075220;28;20040;-74
2021/01/26 05:53:09;;;;;;;14.23;9.45;;;;;;;;;;5074159;28;20033;-75
2021/01/26 05:55:34;;;;;;;13.07;9.68;;;;;;;;;;5074735;28;20123;-75
2021/01/26 05:58:11;;;;;;;13.73;9.57;;;;;;;;;;5075022;28;20112;-75
2021/01/26 06:00:38;;;;;;;12.73;8.63;;;;;;;;;;5074959;28;20040;-75
2021/01/26 06:03:08;;;;;;;10.60;8.15;;;;;;;;;;5075164;28;20032;-75
2021/01/26 06:05:34;;;;;;;17.40;9.98;;;;;;;;;;5074855;28;20044;-74
2021/01/26 06:08:11;;;;;;;12.07;9.23;;;;;;;;;;5074887;28;20027;-74
2021/01/26 06:10:39;;;;;;;12.98;8.98;;;;;;;;;;5074779;28;20032;-75
2021/01/26 06:13:05;;;;;;;14.80;10.65;;;;;;;;;;5074961;28;20389;-74
2021/01/26 06:15:34;;;;;;;12.82;9.77;;;;;;;;;;5074925;28;20035;-74
2021/01/26 06:18:12;;;;;;;11.80;9.10;;;;;;;;;;5074845;28;20078;-74
2021/01/26 06:20:38;;;;;;;12.63;10.55;;;;;;;;;;5073933;28;20047;-74
2021/01/26 06:23:18;;;;;;;13.38;9.52;;;;;;;;;;5074512;28;20041;-74
2021/01/26 06:25:50;;;;;;;12.43;9.15;;;;;;;;;;5074306;28;20042;-74
2021/01/26 06:28:34;;;;;;;11.98;8.70;;;;;;;;;;5055908;28;20033;-74
2021/01/26 06:31:28;;;;;;;10.70;8.30;;;;;;;;;;5074268;28;20469;-74
2021/01/26 06:34:30;;;;;;;12.35;8.95;;;;;;;;;;5074279;28;20060;-75
2021/01/26 06:37:08;;;;;;;11.85;8.68;;;;;;;;;;5074310;28;20086;-74
2021/01/26 06:39:50;;;;;;;11.45;8.20;;;;;;;;;;5073615;28;20448;-75
2021/01/26 06:42:32;;;;;;;11.88;7.53;;;;;;;;;;5073050;28;20035;-74
2021/01/26 06:45:20;;;;;;;9.82;7.15;;;;;;;;;;5074430;28;20048;-74
2021/01/26 06:48:06;;;;;;;9.07;6.43;;;;;;;;;;5056323;28;20390;-75
2021/01/26 06:50:46;;;;;;;11.02;6.55;;;;;;;;;;5056476;28;20524;-75
2021/01/26 06:53:14;;;;;;;8.80;6.50;;;;;;;;;;5073924;28;20039;-75
2021/01/26 06:56:10;;;;;;;7.32;5.68;;;;;;;;;;5074019;28;20039;-74
2021/01/26 06:59:02;;;;;;;10.23;6.15;;;;;;;;;;5073754;28;20036;-74
2021/01/26 07:01:53;;;;;;;9.90;5.45;;;;;;;;;;5055706;28;20090;-74
2021/01/26 07:04:39;;;;;;;7.82;4.85;;;;;;;;;;5073788;28;20543;-75
2021/01/26 07:07:35;;;;;;;7.35;4.53;;;;;;;;;;5072972;28;20040;-74
2021/01/26 07:10:07;;;;;;;8.88;4.40;;;;;;;;;;5073738;28;20481;-74
2021/01/26 07:12:47;;;;;;;7.47;4.35;;;;;;;;;;5073444;28;20102;-75
2021/01/26 07:15:18;;;;;;;6.88;4.07;;;;;;;;;;5073873;28;20055;-73
2021/01/26 07:17:59;;;;;;;7.38;3.85;;;;;;;;;;5073455;28;20370;-72
2021/01/26 07:20:58;;;;;;;5.18;3.38;;;;;;;;;;5073587;28;20033;-72
2021/01/26 07:23:42;;;;;;;6.32;3.78;;;;;;;;;;5073442;28;20040;-73
2021/01/26 07:26:45;;;;;;;7.97;3.58;;;;;;;;;;5073553;28;20136;-73
2021/01/26 07:29:45;;;;;;;10.77;5.38;;;;;;;;;;5073311;28;20036;-73
2021/01/26 07:32:19;;;;;;;4.60;3.58;;;;;;;;;;5054588;28;20832;-73
2021/01/26 07:35:08;;;;;;;6.57;3.63;;;;;;;;;;5073357;28;20037;-72
2021/01/26 07:37:58;;;;;;;5.60;3.13;;;;;;;;;;5054299;28;20040;-75
2021/01/26 07:40:45;;;;;;;3.85;2.97;;;;;;;;;;5073297;28;20402;-75
2021/01/26 07:43:17;;;;;;;4.20;2.83;;;;;;;;;;5070269;28;20052;-75
2021/01/26 07:45:48;;;;;;;6.00;2.60;;;;;;;;;;5071333;28;20436;-76
2021/01/26 07:48:22;;;;;;;3.13;2.38;;;;;;;;;;5064025;28;20067;-75
2021/01/26 07:50:57;;;;;;;3.30;2.60;;;;;;;;;;5043793;28;20036;-76
2021/01/26 07:53:34;;;;;;;2.55;2.15;;;;;;;;;;5033606;28;20028;-76
2021/01/26 07:56:10;;;;;;;2.83;2.28;;;;;;;;;;5059920;28;20154;-74
2021/01/26 07:58:37;;;;;;;;;;;;;;;;;;5062522;28;20455;-76
2021/01/26 08:01:03;;;;;;;6.45;2.90;;;;;;;;;;5053507;28;19919;-78
2021/01/26 08:03:30;;;;;;;2.83;2.35;;;;;;;;;;5052912;28;20060;-75
2021/01/26 08:05:58;;;;;;;6.05;2.47;;;;;;;;;;5043973;28;20045;-75
2021/01/26 08:08:34;;;;;;;3.28;2.70;;;;;;;;;;5073204;28;20055;-76
2021/01/26 08:11:20;;;;;;;3.15;2.25;;;;;;;;;;5063520;28;20037;-76
2021/01/26 08:14:06;;;;;;;2.80;2.35;;;;;;;;;;5062207;28;20047;-76
2021/01/26 08:16:44;;;;;;;3.00;2.53;;;;;;;;;;5065822;28;20024;-76
2021/01/26 08:19:27;;;;;;;4.30;2.90;;;;;;;;;;5072884;28;20458;-76
2021/01/26 08:21:54;;;;;;;4.38;3.65;;;;;;;;;;5072797;28;20040;-76
2021/01/26 08:24:22;;;;;;;4.72;3.40;;;;;;;;;;5072733;28;20510;-75
2021/01/26 08:26:56;;;;;;;5.25;3.70;;;;;;;;;;5072857;28;20036;-75
2021/01/26 08:29:48;;;;;;;5.65;4.43;;;;;;;;;;5073093;28;20475;-75
2021/01/26 08:32:22;;;;;;;6.32;4.80;;;;;;;;;;5067710;28;20059;-76
2021/01/26 08:34:58;;;;;;;5.30;3.85;;;;;;;;;;5072872;28;20109;-76
2021/01/26 08:37:42;;;;;;;;;;;;;;;;;;5073406;28;20036;-75
2021/01/26 08:40:08;;;;;;;6.07;4.45;;;;;;;;;;5053602;28;19917;-75
2021/01/26 08:42:43;;;;;;;6.72;4.88;;;;;;;;;;5059039;28;20616;-75
2021/01/26 08:45:09;;;;;;;6.90;5.03;;;;;;;;;;5054521;28;20040;-76
2021/01/26 08:47:53;;;;;;;6.85;5.70;;;;;;;;;;5071132;28;20060;-75
2021/01/26 08:50:28;;;;;;;8.15;6.07;;;;;;;;;;5071526;28;20037;-75
2021/01/26 08:53:13;;;;;;;8.27;6.43;;;;;;;;;;5070384;28;20385;-75
2021/01/26 08:55:41;;;;;;;12.32;8.88;;;;;;;;;;5071643;28;20063;-75
2021/01/26 08:58:10;;;;;;;12.70;8.77;;;;;;;;;;5072610;28;20603;-75
2021/01/26 09:00:42;;;;;;;10.93;8.55;;;;;;;;;;5072338;28;20036;-75
2021/01/26 09:03:42;;;;;;;11.05;8.32;;;;;;;;;;5072337;28;20032;-77
2021/01/26 09:06:10;;;;;;;13.13;9.38;;;;;;;;;;5058284;28;20083;-76
2021/01/26 09:08:41;;;;;;;13.32;9.60;;;;;;;;;;5076054;28;20485;-76
2021/01/26 09:11:21;;;;;;;17.50;10.07;;;;;;;;;;5076106;28;20032;-77
2021/01/26 09:13:48;;;;;;;14.88;10.73;;;;;;;;;;5075459;28;20036;-76
2021/01/26 09:16:23;;;;;;;14.30;10.27;;;;;;;;;;5076151;28;20043;-76
2021/01/26 09:18:53;;;;;;;15.50;10.40;;;;;;;;;;5058059;28;20040;-77
2021/01/26 09:21:19;;;;;;;21.02;11.50;;;;;;;;;;5075748;28;20089;-76
2021/01/26 09:23:45;;;;;;;18.08;11.98;;;;;;;;;;5074602;28;20126;-75
2021/01/26 09:26:12;;;;;;;20.35;12.60;;;;;;;;;;5075987;28;20028;-80
2021/01/26 09:28:42;;;;;;;20.95;13.23;;;;;;;;;;5076688;28;20037;-77
2021/01/26 09:31:11;;;;;;;21.80;13.50;;;;;;;;;;5076451;28;20043;-77
2021/01/26 09:33:36;;;;;;;22.80;13.13;;;;;;;;;;5077311;28;20025;-80
2021/01/26 09:36:02;;;;;;;21.70;12.80;;;;;;;;;;5076231;28;20520;-78
2021/01/26 09:38:30;;;;;;;21.80;12.90;;;;;;;;;;5076321;28;20036;-77
2021/01/26 09:41:27;;;;;;;28.35;14.20;;;;;;;;;;5076864;28;20366;-77
2021/01/26 09:44:01;;;;;;;20.98;13.90;;;;;;;;;;5075650;28;20117;-76
2021/01/26 09:46:31;;;;;;;18.65;12.95;;;;;;;;;;5064522;28;20414;-75
2021/01/26 09:49:07;;;;;;;21.45;13.75;;;;;;;;;;5075980;28;20071;-73
2021/01/26 09:51:39;;;;;;;23.05;13.10;;;;;;;;;;5077108;28;20037;-74
2021/01/26 09:54:10;;;;;;;23.65;14.18;;;;;;;;;;5071958;28;20111;-74
2021/01/26 09:56:38;;;;;;;19.92;13.13;;;;;;;;;;5063110;28;20056;-76
2021/01/26 09:59:05;;;;;;;20.92;12.27;;;;;;;;;;5063046;28;20032;-75
2021/01/26 10:01:33;;;;;;;23.08;13.13;;;;;;;;;;5065654;28;20521;-76
2021/01/26 10:04:03;;;;;;;19.60;12.48;;;;;;;;;;5072498;28;20067;-76
2021/01/26 10:06:29;;;;;;;20.70;11.88;;;;;;;;;;5070293;28;20056;-76
2021/01/26 10:08:55;;;;;;;20.40;13.23;;;;;;;;;;5063871;28;20100;-73
2021/01/26 10:11:29;;;;;;;16.92;10.70;;;;;;;;;;5074778;28;20045;-73
2021/01/26 10:14:18;;;;;;;16.40;10.60;;;;;;;;;;5075035;28;20048;-74
2021/01/26 10:16:46;;;;;;;19.88;11.77;;;;;;;;;;5074739;28;20516;-75
2021/01/26 10:19:30;;;;;;;26.02;12.40;;;;;;;;;;5073697;28;20025;-73
2021/01/26 10:22:09;;;;;;;15.88;10.80;;;;;;;;;;5074604;28;20409;-74
2021/01/26 10:24:35;;;;;;;15.27;10.95;;;;;;;;;;5074688;28;20094;-76
2021/01/26 10:27:26;;;;;;;14.57;10.02;;;;;;;;;;5074809;28;20363;-75
2021/01/26 10:30:15;;;;;;;13.00;9.55;;;;;;;;;;5069879;28;20548;-75
2021/01/26 10:32:45;;;;;;;12.75;9.60;;;;;;;;;;5074656;28;20036;-72
2021/01/26 10:35:27;;;;;;;13.13;9.52;;;;;;;;;;5074343;28;20035;-75
2021/01/26 10:37:53;;;;;;;13.30;9.90;;;;;;;;;;5074626;28;20148;-76
2021/01/26 10:40:22;;;;;;;15.18;10.30;;;;;;;;;;5074462;28;20040;-73
2021/01/26 10:43:06;;;;;;;16.23;10.85;;;;;;;;;;5055529;28;20040;-75
2021/01/26 10:45:38;;;;;;;17.10;11.75;;;;;;;;;;5074220;28;20096;-76
2021/01/26 10:48:15;;;;;;;18.92;12.85;;;;;;;;;;5074120;28;20041;-76
2021/01/26 10:50:41;;;;;;;16.67;11.18;;;;;;;;;;5073962;28;20028;-75
2021/01/26 10:53:06;;;;;;;15.98;11.80;;;;;;;;;;5074153;28;20359;-74
2021/01/26 10:55:33;;;;;;;18.50;12.95;;;;;;;;;;5074071;28;20043;-74
2021/01/26 10:57:58;;;;;;;17.27;11.75;;;;;;;;;;5073862;28;20029;-75
2021/01/26 11:00:28;;;;;;;15.50;11.75;;;;;;;;;;5057954;28;20112;-75
2021/01/26 11:02:55;;;;;;;16.33;12.38;;;;;;;;;;5019583;28;20576;-74
2021/01/26 11:05:22;;;;;;;16.83;12.30;;;;;;;;;;5059066;28;20430;-74
2021/01/26 11:07:49;;;;;;;16.38;12.40;;;;;;;;;;5053513;28;20048;-77
2021/01/26 11:10:15;;;;;;;18.80;12.70;;;;;;;;;;5036270;28;20032;-75
2021/01/26 11:12:41;;;;;;;19.67;13.25;;;;;;;;;;5065589;28;20170;-75
2021/01/26 11:15:26;;;;;;;19.60;12.32;;;;;;;;;;5055866;28;20029;-75
2021/01/26 11:17:52;;;;;;;20.92;14.20;;;;;;;;;;5055789;28;20375;-74
2021/01/26 11:20:17;;;;;;;22.08;15.70;;;;;;;;;;5073247;28;20044;-75
2021/01/26 11:22:42;;;;;;;21.20;14.50;;;;;;;;;;5073703;28;20032;-75
2021/01/26 11:25:09;;;;;;;23.33;15.43;;;;;;;;;;5073654;28;20476;-75
2021/01/26 11:27:35;;;;;;;21.60;15.40;;;;;;;;;;5072940;28;20032;-75
2021/01/26 11:30:03;;;;;;;20.90;15.00;;;;;;;;;;5073505;28;20055;-75
2021/01/26 11:32:29;;;;;;;23.65;16.27;;;;;;;;;;5073504;28;20028;-75
2021/01/26 11:34:54;;;;;;;26.88;16.65;;;;;;;;;;5073159;28;20379;-75
2021/01/26 11:37:19;;;;;;;24.88;16.48;;;;;;;;;;5073632;28;20474;-75
2021/01/26 11:39:45;;;;;;;23.08;15.82;;;;;;;;;;5073516;28;20086;-75
2021/01/26 11:42:10;;;;;;;21.25;14.85;;;;;;;;;;5072043;28;20544;-75
2021/01/26 11:44:36;;;;;;;19.90;14.38;;;;;;;;;;5055181;28;20048;-75
2021/01/26 11:47:03;;;;;;;20.23;14.25;;;;;;;;;;5055291;28;20401;-75
2021/01/26 11:49:28;;;;;;;17.60;13.00;;;;;;;;;;5055319;28;20050;-75
2021/01/26 11:51:54;;;;;;;19.38;13.38;;;;;;;;;;5055254;28;20032;-75
2021/01/26 11:54:19;;;;;;;17.42;13.15;;;;;;;;;;5071980;28;20029;-75
2021/01/26 11:56:44;;;;;;;17.98;13.30;;;;;;;;;;5073278;28;20033;-75
2021/01/26 11:59:10;;;;;;;17.48;13.02;;;;;;;;;;5073194;28;20534;-75
2021/01/26 12:01:35;;;;;;;16.90;12.93;;;;;;;;;;5073412;28;20611;-75
2021/01/26 12:04:01;;;;;;;19.30;12.90;;;;;;;;;;5072990;28;20070;-75
2021/01/26 12:06:26;;;;;;;15.90;12.10;;;;;;;;;;5055181;28;20036;-75
2021/01/26 12:08:51;;;;;;;16.02;11.65;;;;;;;;;;5073030;28;20171;-75
2021/01/26 12:11:17;;;;;;;17.55;12.43;;;;;;;;;;5073087;28;20044;-75
2021/01/26 12:13:43;;;;;;;17.50;13.15;;;;;;;;;;5071782;28;20032;-75
2021/01/26 12:16:09;;;;;;;17.67;12.55;;;;;;;;;;5073008;28;20020;-75
2021/01/26 12:18:35;;;;;;;15.65;11.30;;;;;;;;;;5072928;28;20051;-75
2021/01/26 12:21:00;;;;;;;15.70;11.30;;;;;;;;;;5072893;28;20041;-75
2021/01/26 12:23:25;;;;;;;14.90;11.48;;;;;;;;;;5073018;28;20037;-76
2021/01/26 12:25:57;;;;;;;14.38;11.15;;;;;;;;;;5072729;28;20044;-75
2021/01/26 12:28:22;;;;;;;15.50;11.52;;;;;;;;;;5072621;28;20068;-75
2021/01/26 12:30:49;;;;;;;15.55;10.50;;;;;;;;;;5072829;28;20075;-75
2021/01/26 12:33:14;;;;;;;16.13;12.32;;;;;;;;;;5072822;28;20029;-75
2021/01/26 12:35:40;;;;;;;15.95;11.98;;;;;;;;;;5071713;28;20041;-75
2021/01/26 12:38:08;;;;;;;16.17;11.35;;;;;;;;;;5055311;28;20060;-76
2021/01/26 12:40:33;;;;;;;19.52;12.57;;;;;;;;;;5056696;28;20037;-75
2021/01/26 12:43:00;;;;;;;15.48;11.38;;;;;;;;;;5058038;28;20090;-75
2021/01/26 12:45:28;;;;;;;16.83;11.20;;;;;;;;;;5075681;28;20032;-75
2021/01/26 12:47:54;;;;;;;16.13;11.52;;;;;;;;;;5075346;28;20428;-75
2021/01/26 12:50:25;;;;;;;18.48;12.05;;;;;;;;;;5076259;28;20081;-75
2021/01/26 12:52:50;;;;;;;15.43;11.27;;;;;;;;;;5076526;28;20070;-75
2021/01/26 12:55:16;;;;;;;14.93;11.05;;;;;;;;;;5076388;28;20416;-75
2021/01/26 12:57:42;;;;;;;11.52;9.15;;;;;;;;;;5076363;28;20020;-75
2021/01/26 13:00:11;;;;;;;14.20;10.38;;;;;;;;;;5075944;28;20032;-75
2021/01/26 13:02:36;;;;;;;14.40;9.88;;;;;;;;;;5074721;28;20033;-75
2021/01/26 13:05:03;;;;;;;12.40;9.02;;;;;;;;;;5057692;28;20550;-75
2021/01/26 13:07:28;;;;;;;13.07;9.00;;;;;;;;;;5076231;28;20478;-75
2021/01/26 13:09:54;;;;;;;11.10;8.45;;;;;;;;;;5076071;28;20052;-75
2021/01/26 13:12:19;;;;;;;14.00;10.43;;;;;;;;;;5074913;28;20102;-75
2021/01/26 13:14:44;;;;;;;13.65;9.40;;;;;;;;;;5075932;28;20025;-75
2021/01/26 13:17:10;;;;;;;15.05;10.30;;;;;;;;;;5076118;28;20426;-75
2021/01/26 13:19:36;;;;;;;15.50;11.18;;;;;;;;;;5076067;28;20033;-75
2021/01/26 13:22:02;;;;;;;13.18;9.55;;;;;;;;;;5076096;28;20047;-75
2021/01/26 13:24:29;;;;;;;15.15;10.77;;;;;;;;;;5075853;28;20398;-75
2021/01/26 13:26:54;;;;;;;13.52;10.10;;;;;;;;;;5057848;28;20041;-75
2021/01/26 13:29:19;;;;;;;12.43;9.60;;;;;;;;;;5074530;28;20028;-75
2021/01/26 13:31:45;;;;;;;12.77;9.68;;;;;;;;;;5075633;28;20119;-75
2021/01/26 13:34:10;;;;;;;13.15;9.63;;;;;;;;;;5075484;28;20091;-75
2021/01/26 13:36:35;;;;;;;15.50;10.82;;;;;;;;;;5074902;28;20040;-75
2021/01/26 13:39:01;;;;;;;12.90;9.95;;;;;;;;;;5075372;28;20041;-75
2021/01/26 13:41:27;;;;;;;14.35;10.43;;;;;;;;;;5074935;28;20064;-75
2021/01/26 13:43:52;;;;;;;13.55;10.32;;;;;;;;;;5075042;28;20083;-75
2021/01/26 13:46:17;;;;;;;13.90;10.50;;;;;;;;;;5075042;28;20036;-75
2021/01/26 13:48:43;;;;;;;14.43;10.95;;;;;;;;;;5075623;28;20086;-75
2021/01/26 13:51:09;;;;;;;15.77;11.55;;;;;;;;;;5074705;28;20044;-75
2021/01/26 13:53:35;;;;;;;14.73;10.95;;;;;;;;;;5056215;28;20044;-75
2021/01/26 13:56:00;;;;;;;14.57;10.77;;;;;;;;;;5075106;28;20035;-75
2021/01/26 13:58:26;;;;;;;17.45;12.85;;;;;;;;;;5075288;28;20111;-75
2021/01/26 14:00:51;;;;;;;18.63;13.15;;;;;;;;;;5075269;28;20468;-75
2021/01/26 14:03:16;;;;;;;17.30;11.95;;;;;;;;;;5075233;28;20418;-75
2021/01/26 14:05:42;;;;;;;18.52;12.23;;;;;;;;;;5075041;28;20072;-75
2021/01/26 14:08:08;;;;;;;16.17;11.98;;;;;;;;;;5075014;28;20036;-75
2021/01/26 14:10:35;;;;;;;17.52;12.27;;;;;;;;;;5073818;28;20051;-76
2021/01/26 14:13:03;;;;;;;17.42;12.07;;;;;;;;;;5072149;28;20562;-75
2021/01/26 14:15:30;;;;;;;18.33;13.35;;;;;;;;;;5074220;28;20045;-76
2021/01/26 14:17:56;;;;;;;18.63;13.15;;;;;;;;;;5074942;28;20036;-76
2021/01/26 14:20:21;;;;;;;16.83;12.43;;;;;;;;;;5075033;28;20068;-76
2021/01/26 14:22:47;;;;;;;17.45;12.80;;;;;;;;;;5074827;28;20372;-76
2021/01/26 14:25:14;;;;;;;15.63;11.38;;;;;;;;;;5074621;28;20040;-75
2021/01/26 14:27:40;;;;;;;15.88;11.65;;;;;;;;;;5074234;28;20178;-76
2021/01/26 14:30:08;;;;;;;13.88;10.98;;;;;;;;;;5074576;28;20540;-76
2021/01/26 14:32:33;;;;;;;14.80;10.30;;;;;;;;;;5074673;28;20072;-76
2021/01/26 14:34:58;;;;;;;13.13;9.68;;;;;;;;;;5074479;28;20071;-76
2021/01/26 14:37:32;;;;;;;13.52;9.60;;;;;;;;;;5055617;28;20416;-75
2021/01/26 14:40:03;;;;;;;13.10;9.98;;;;;;;;;;5074525;28;20029;-76
2021/01/26 14:42:28;;;;;;;15.00;9.68;;;;;;;;;;5056278;28;20036;-76
2021/01/26 14:44:54;;;;;;;12.02;8.95;;;;;;;;;;5052963;28;20071;-76
2021/01/26 14:47:19;;;;;;;12.05;8.98;;;;;;;;;;5054324;28;20418;-76
2021/01/26 14:49:44;;;;;;;11.80;8.68;;;;;;;;;;5053134;28;20037;-76
2021/01/26 14:52:10;;;;;;;11.90;7.90;;;;;;;;;;5053029;28;20086;-76